sensor_id;sensor_type;location;lat;lon;timestamp;temperature;humidity
66873;HTU21D;53781;51.090;5.884;2022-07-09T00:00:06;19.25;65.08
66873;HTU21D;53781;51.090;5.884;2022-07-09T00:00:24;19.25;65.05
66873;HTU21D;53781;51.090;5.884;2022-07-09T00:00:38;19.24;65.02
66873;HTU21D;53781;51.090;5.884;2022-07-09T00:00:53;19.25;65.04
66873;HTU21D;53781;51.090;5.884;2022-07-09T00:01:09;19.26;64.99
66873;HTU21D;53781;51.090;5.884;2022-07-09T00:01:23;19.27;64.90
66873;HTU21D;53781;51.090;5.884;2022-07-09T00:01:38;19.27;64.92
66873;HTU21D;53781;51.090;5.884;2022-07-09T00:01:53;19.26;64.88
66873;HTU21D;53781;51.090;5.884;2022-07-09T00:02:07;19.27;64.88
66873;HTU21D;53781;51.090;5.884;2022-07-09T00:02:22;19.26;64.96
66873;HTU21D;53781;51.090;5.884;2022-07-09T00:02:37;19.27;64.96
66873;HTU21D;53781;51.090;5.884;2022-07-09T00:02:52;19.26;64.92
66873;HTU21D;53781;51.090;5.884;2022-07-09T00:03:06;19.27;64.99
66873;HTU21D;53781;51.090;5.884;2022-07-09T00:03:21;19.27;64.94
66873;HTU21D;53781;51.090;5.884;2022-07-09T00:03:36;19.27;65.03
66873;HTU21D;53781;51.090;5.884;2022-07-09T00:03:51;19.27;65.04
66873;HTU21D;53781;51.090;5.884;2022-07-09T00:04:06;19.28;65.04
66873;HTU21D;53781;51.090;5.884;2022-07-09T00:04:21;19.27;65.02
66873;HTU21D;53781;51.090;5.884;2022-07-09T00:04:35;19.28;65.01
66873;HTU21D;53781;51.090;5.884;2022-07-09T00:04:50;19.27;65.00
66873;HTU21D;53781;51.090;5.884;2022-07-09T00:05:05;19.27;65.04
66873;HTU21D;53781;51.090;5.884;2022-07-09T00:05:20;19.30;65.04
66873;HTU21D;53781;51.090;5.884;2022-07-09T00:05:34;19.28;64.99
66873;HTU21D;53781;51.090;5.884;2022-07-09T00:05:49;19.28;64.98
66873;HTU21D;53781;51.090;5.884;2022-07-09T00:06:04;19.28;64.99
66873;HTU21D;53781;51.090;5.884;2022-07-09T00:06:19;19.27;65.00
66873;HTU21D;53781;51.090;5.884;2022-07-09T00:06:34;19.28;64.94
66873;HTU21D;53781;51.090;5.884;2022-07-09T00:06:48;19.27;64.98
66873;HTU21D;53781;51.090;5.884;2022-07-09T00:07:03;19.28;65.02
66873;HTU21D;53781;51.090;5.884;2022-07-09T00:07:18;19.29;65.05
66873;HTU21D;53781;51.090;5.884;2022-07-09T00:07:33;19.31;65.01
66873;HTU21D;53781;51.090;5.884;2022-07-09T00:07:47;19.30;65.08
66873;HTU21D;53781;51.090;5.884;2022-07-09T00:08:02;19.29;65.03
66873;HTU21D;53781;51.090;5.884;2022-07-09T00:08:17;19.29;65.05
66873;HTU21D;53781;51.090;5.884;2022-07-09T00:08:32;19.29;65.06
66873;HTU21D;53781;51.090;5.884;2022-07-09T00:08:46;19.28;65.07
66873;HTU21D;53781;51.090;5.884;2022-07-09T00:09:01;19.26;65.08
66873;HTU21D;53781;51.090;5.884;2022-07-09T00:09:16;19.27;65.08
66873;HTU21D;53781;51.090;5.884;2022-07-09T00:09:30;19.27;65.08
66873;HTU21D;53781;51.090;5.884;2022-07-09T00:09:45;19.28;65.13
66873;HTU21D;53781;51.090;5.884;2022-07-09T00:10:00;19.29;65.17
66873;HTU21D;53781;51.090;5.884;2022-07-09T00:10:14;19.27;65.14
66873;HTU21D;53781;51.090;5.884;2022-07-09T00:10:29;19.28;65.15
66873;HTU21D;53781;51.090;5.884;2022-07-09T00:10:44;19.28;65.18
66873;HTU21D;53781;51.090;5.884;2022-07-09T00:10:59;19.26;65.17
66873;HTU21D;53781;51.090;5.884;2022-07-09T00:11:14;19.28;65.24
66873;HTU21D;53781;51.090;5.884;2022-07-09T00:11:28;19.28;65.22
66873;HTU21D;53781;51.090;5.884;2022-07-09T00:11:43;19.27;65.30
66873;HTU21D;53781;51.090;5.884;2022-07-09T00:11:58;19.28;65.25
66873;HTU21D;53781;51.090;5.884;2022-07-09T00:12:13;19.29;65.30
66873;HTU21D;53781;51.090;5.884;2022-07-09T00:12:27;19.27;65.30
66873;HTU21D;53781;51.090;5.884;2022-07-09T00:12:42;19.29;65.27
66873;HTU21D;53781;51.090;5.884;2022-07-09T00:12:57;19.29;65.24
66873;HTU21D;53781;51.090;5.884;2022-07-09T00:13:12;19.30;65.18
66873;HTU21D;53781;51.090;5.884;2022-07-09T00:13:26;19.33;65.11
66873;HTU21D;53781;51.090;5.884;2022-07-09T00:13:41;19.31;65.08
66873;HTU21D;53781;51.090;5.884;2022-07-09T00:13:56;19.31;65.06
66873;HTU21D;53781;51.090;5.884;2022-07-09T00:14:10;19.31;65.05
66873;HTU21D;53781;51.090;5.884;2022-07-09T00:14:25;19.30;65.08
66873;HTU21D;53781;51.090;5.884;2022-07-09T00:14:40;19.30;65.11
66873;HTU21D;53781;51.090;5.884;2022-07-09T00:14:55;19.29;65.15
66873;HTU21D;53781;51.090;5.884;2022-07-09T00:15:10;19.28;65.14
66873;HTU21D;53781;51.090;5.884;2022-07-09T00:15:24;19.28;65.17
66873;HTU21D;53781;51.090;5.884;2022-07-09T00:15:39;19.27;65.17
66873;HTU21D;53781;51.090;5.884;2022-07-09T00:15:54;19.26;65.22
66873;HTU21D;53781;51.090;5.884;2022-07-09T00:16:09;19.26;65.24
66873;HTU21D;53781;51.090;5.884;2022-07-09T00:16:23;19.26;65.22
66873;HTU21D;53781;51.090;5.884;2022-07-09T00:16:38;19.26;65.25
66873;HTU21D;53781;51.090;5.884;2022-07-09T00:16:53;19.27;65.25
66873;HTU21D;53781;51.090;5.884;2022-07-09T00:17:07;19.26;65.23
66873;HTU21D;53781;51.090;5.884;2022-07-09T00:17:22;19.25;65.24
66873;HTU21D;53781;51.090;5.884;2022-07-09T00:17:37;19.24;65.22
66873;HTU21D;53781;51.090;5.884;2022-07-09T00:17:52;19.24;65.23
66873;HTU21D;53781;51.090;5.884;2022-07-09T00:18:06;19.24;65.26
66873;HTU21D;53781;51.090;5.884;2022-07-09T00:18:21;19.25;65.29
66873;HTU21D;53781;51.090;5.884;2022-07-09T00:18:36;19.22;65.24
66873;HTU21D;53781;51.090;5.884;2022-07-09T00:18:50;19.23;65.30
66873;HTU21D;53781;51.090;5.884;2022-07-09T00:19:05;19.23;65.27
66873;HTU21D;53781;51.090;5.884;2022-07-09T00:19:20;19.22;65.30
66873;HTU21D;53781;51.090;5.884;2022-07-09T00:19:35;19.22;65.30
66873;HTU21D;53781;51.090;5.884;2022-07-09T00:19:50;19.22;65.27
66873;HTU21D;53781;51.090;5.884;2022-07-09T00:20:05;19.22;65.30
66873;HTU21D;53781;51.090;5.884;2022-07-09T00:20:20;19.21;65.24
66873;HTU21D;53781;51.090;5.884;2022-07-09T00:20:35;19.22;65.30
66873;HTU21D;53781;51.090;5.884;2022-07-09T00:20:49;19.22;65.27
66873;HTU21D;53781;51.090;5.884;2022-07-09T00:21:04;19.20;65.23
66873;HTU21D;53781;51.090;5.884;2022-07-09T00:21:19;19.18;65.27
66873;HTU21D;53781;51.090;5.884;2022-07-09T00:21:34;19.18;65.28
66873;HTU21D;53781;51.090;5.884;2022-07-09T00:21:48;19.21;65.29
66873;HTU21D;53781;51.090;5.884;2022-07-09T00:22:03;19.18;65.31
66873;HTU21D;53781;51.090;5.884;2022-07-09T00:22:20;19.20;65.29
66873;HTU21D;53781;51.090;5.884;2022-07-09T00:22:34;19.18;65.31
66873;HTU21D;53781;51.090;5.884;2022-07-09T00:22:49;19.18;65.26
66873;HTU21D;53781;51.090;5.884;2022-07-09T00:23:04;19.17;65.27
66873;HTU21D;53781;51.090;5.884;2022-07-09T00:23:19;19.18;65.36
66873;HTU21D;53781;51.090;5.884;2022-07-09T00:23:33;19.17;65.33
66873;HTU21D;53781;51.090;5.884;2022-07-09T00:23:48;19.17;65.35
66873;HTU21D;53781;51.090;5.884;2022-07-09T00:24:03;19.17;65.30
66873;HTU21D;53781;51.090;5.884;2022-07-09T00:24:18;19.17;65.34
66873;HTU21D;53781;51.090;5.884;2022-07-09T00:24:32;19.15;65.33
66873;HTU21D;53781;51.090;5.884;2022-07-09T00:24:48;19.15;65.43
66873;HTU21D;53781;51.090;5.884;2022-07-09T00:25:03;19.17;65.43
66873;HTU21D;53781;51.090;5.884;2022-07-09T00:25:18;19.15;65.43
66873;HTU21D;53781;51.090;5.884;2022-07-09T00:25:33;19.14;65.43
66873;HTU21D;53781;51.090;5.884;2022-07-09T00:25:47;19.15;65.46
66873;HTU21D;53781;51.090;5.884;2022-07-09T00:26:02;19.15;65.49
66873;HTU21D;53781;51.090;5.884;2022-07-09T00:26:17;19.14;65.50
66873;HTU21D;53781;51.090;5.884;2022-07-09T00:26:33;19.15;65.43
66873;HTU21D;53781;51.090;5.884;2022-07-09T00:26:47;19.14;65.48
66873;HTU21D;53781;51.090;5.884;2022-07-09T00:27:02;19.13;65.52
66873;HTU21D;53781;51.090;5.884;2022-07-09T00:27:17;19.14;65.51
66873;HTU21D;53781;51.090;5.884;2022-07-09T00:27:32;19.14;65.52
66873;HTU21D;53781;51.090;5.884;2022-07-09T00:27:46;19.14;65.47
66873;HTU21D;53781;51.090;5.884;2022-07-09T00:28:01;19.14;65.47
66873;HTU21D;53781;51.090;5.884;2022-07-09T00:28:16;19.12;65.47
66873;HTU21D;53781;51.090;5.884;2022-07-09T00:28:30;19.13;65.52
66873;HTU21D;53781;51.090;5.884;2022-07-09T00:28:45;19.12;65.60
66873;HTU21D;53781;51.090;5.884;2022-07-09T00:29:00;19.13;65.61
66873;HTU21D;53781;51.090;5.884;2022-07-09T00:29:15;19.13;65.60
66873;HTU21D;53781;51.090;5.884;2022-07-09T00:29:29;19.12;65.59
66873;HTU21D;53781;51.090;5.884;2022-07-09T00:29:44;19.12;65.57
66873;HTU21D;53781;51.090;5.884;2022-07-09T00:29:59;19.12;65.57
66873;HTU21D;53781;51.090;5.884;2022-07-09T00:30:13;19.10;65.59
66873;HTU21D;53781;51.090;5.884;2022-07-09T00:30:28;19.10;65.59
66873;HTU21D;53781;51.090;5.884;2022-07-09T00:30:43;19.10;65.61
66873;HTU21D;53781;51.090;5.884;2022-07-09T00:30:57;19.11;65.61
66873;HTU21D;53781;51.090;5.884;2022-07-09T00:31:12;19.10;65.60
66873;HTU21D;53781;51.090;5.884;2022-07-09T00:31:27;19.09;65.61
66873;HTU21D;53781;51.090;5.884;2022-07-09T00:31:42;19.09;65.59
66873;HTU21D;53781;51.090;5.884;2022-07-09T00:31:56;19.10;65.64
66873;HTU21D;53781;51.090;5.884;2022-07-09T00:32:11;19.09;65.66
66873;HTU21D;53781;51.090;5.884;2022-07-09T00:32:26;19.08;65.62
66873;HTU21D;53781;51.090;5.884;2022-07-09T00:32:40;19.07;65.66
66873;HTU21D;53781;51.090;5.884;2022-07-09T00:32:55;19.05;65.68
66873;HTU21D;53781;51.090;5.884;2022-07-09T00:33:10;19.06;65.69
66873;HTU21D;53781;51.090;5.884;2022-07-09T00:33:24;19.03;65.70
66873;HTU21D;53781;51.090;5.884;2022-07-09T00:33:39;19.05;65.72
66873;HTU21D;53781;51.090;5.884;2022-07-09T00:33:54;19.03;65.78
66873;HTU21D;53781;51.090;5.884;2022-07-09T00:34:09;19.05;65.79
66873;HTU21D;53781;51.090;5.884;2022-07-09T00:34:23;19.02;65.82
66873;HTU21D;53781;51.090;5.884;2022-07-09T00:34:38;19.00;65.81
66873;HTU21D;53781;51.090;5.884;2022-07-09T00:34:53;19.00;65.80
66873;HTU21D;53781;51.090;5.884;2022-07-09T00:35:08;18.99;65.84
66873;HTU21D;53781;51.090;5.884;2022-07-09T00:35:22;19.00;65.85
66873;HTU21D;53781;51.090;5.884;2022-07-09T00:35:37;18.99;65.90
66873;HTU21D;53781;51.090;5.884;2022-07-09T00:35:52;18.98;65.95
66873;HTU21D;53781;51.090;5.884;2022-07-09T00:36:07;18.98;65.98
66873;HTU21D;53781;51.090;5.884;2022-07-09T00:36:21;18.98;65.96
66873;HTU21D;53781;51.090;5.884;2022-07-09T00:36:36;18.97;65.94
66873;HTU21D;53781;51.090;5.884;2022-07-09T00:36:51;18.97;65.95
66873;HTU21D;53781;51.090;5.884;2022-07-09T00:37:05;18.97;65.97
66873;HTU21D;53781;51.090;5.884;2022-07-09T00:37:20;18.97;65.98
66873;HTU21D;53781;51.090;5.884;2022-07-09T00:37:35;18.96;65.95
66873;HTU21D;53781;51.090;5.884;2022-07-09T00:37:49;18.97;65.91
66873;HTU21D;53781;51.090;5.884;2022-07-09T00:38:04;18.96;65.85
66873;HTU21D;53781;51.090;5.884;2022-07-09T00:38:18;18.96;65.90
66873;HTU21D;53781;51.090;5.884;2022-07-09T00:38:33;18.94;65.85
66873;HTU21D;53781;51.090;5.884;2022-07-09T00:38:48;18.95;65.91
66873;HTU21D;53781;51.090;5.884;2022-07-09T00:39:03;18.95;65.92
66873;HTU21D;53781;51.090;5.884;2022-07-09T00:39:18;18.96;65.91
66873;HTU21D;53781;51.090;5.884;2022-07-09T00:39:32;18.96;65.94
66873;HTU21D;53781;51.090;5.884;2022-07-09T00:39:47;18.95;65.95
66873;HTU21D;53781;51.090;5.884;2022-07-09T00:40:02;18.95;65.89
66873;HTU21D;53781;51.090;5.884;2022-07-09T00:40:17;18.94;65.91
66873;HTU21D;53781;51.090;5.884;2022-07-09T00:40:32;18.93;65.88
66873;HTU21D;53781;51.090;5.884;2022-07-09T00:40:48;18.93;65.89
66873;HTU21D;53781;51.090;5.884;2022-07-09T00:41:05;18.93;65.95
66873;HTU21D;53781;51.090;5.884;2022-07-09T00:41:20;18.92;65.91
66873;HTU21D;53781;51.090;5.884;2022-07-09T00:41:34;18.93;65.91
66873;HTU21D;53781;51.090;5.884;2022-07-09T00:41:49;18.92;65.94
66873;HTU21D;53781;51.090;5.884;2022-07-09T00:42:05;18.89;65.89
66873;HTU21D;53781;51.090;5.884;2022-07-09T00:42:20;18.93;65.95
66873;HTU21D;53781;51.090;5.884;2022-07-09T00:42:35;18.89;65.95
66873;HTU21D;53781;51.090;5.884;2022-07-09T00:42:49;18.92;65.94
66873;HTU21D;53781;51.090;5.884;2022-07-09T00:43:20;18.89;65.95
66873;HTU21D;53781;51.090;5.884;2022-07-09T00:43:35;18.87;65.98
66873;HTU21D;53781;51.090;5.884;2022-07-09T00:43:50;18.87;65.98
66873;HTU21D;53781;51.090;5.884;2022-07-09T00:44:05;18.87;65.98
66873;HTU21D;53781;51.090;5.884;2022-07-09T00:44:19;18.88;65.93
66873;HTU21D;53781;51.090;5.884;2022-07-09T00:44:35;18.86;65.93
66873;HTU21D;53781;51.090;5.884;2022-07-09T00:44:50;18.88;65.99
66873;HTU21D;53781;51.090;5.884;2022-07-09T00:45:05;18.86;66.01
66873;HTU21D;53781;51.090;5.884;2022-07-09T00:45:20;18.85;66.01
66873;HTU21D;53781;51.090;5.884;2022-07-09T00:45:35;18.85;66.03
66873;HTU21D;53781;51.090;5.884;2022-07-09T00:45:50;18.85;66.00
66873;HTU21D;53781;51.090;5.884;2022-07-09T00:46:04;18.84;66.01
66873;HTU21D;53781;51.090;5.884;2022-07-09T00:46:19;18.83;65.99
66873;HTU21D;53781;51.090;5.884;2022-07-09T00:46:34;18.81;65.99
66873;HTU21D;53781;51.090;5.884;2022-07-09T00:46:48;18.80;65.95
66873;HTU21D;53781;51.090;5.884;2022-07-09T00:47:06;18.81;66.02
66873;HTU21D;53781;51.090;5.884;2022-07-09T00:47:21;18.82;66.00
66873;HTU21D;53781;51.090;5.884;2022-07-09T00:47:35;18.82;66.03
66873;HTU21D;53781;51.090;5.884;2022-07-09T00:47:50;18.81;66.05
66873;HTU21D;53781;51.090;5.884;2022-07-09T00:48:05;18.81;66.02
66873;HTU21D;53781;51.090;5.884;2022-07-09T00:48:19;18.79;66.04
66873;HTU21D;53781;51.090;5.884;2022-07-09T00:48:34;18.81;66.02
66873;HTU21D;53781;51.090;5.884;2022-07-09T00:48:49;18.80;66.02
66873;HTU21D;53781;51.090;5.884;2022-07-09T00:49:03;18.79;66.06
66873;HTU21D;53781;51.090;5.884;2022-07-09T00:49:20;18.80;65.99
66873;HTU21D;53781;51.090;5.884;2022-07-09T00:49:39;18.79;66.07
66873;HTU21D;53781;51.090;5.884;2022-07-09T00:49:55;18.79;66.04
66873;HTU21D;53781;51.090;5.884;2022-07-09T00:50:11;18.78;66.07
66873;HTU21D;53781;51.090;5.884;2022-07-09T00:50:26;18.77;66.07
66873;HTU21D;53781;51.090;5.884;2022-07-09T00:50:42;18.77;66.04
66873;HTU21D;53781;51.090;5.884;2022-07-09T00:50:57;18.77;66.06
66873;HTU21D;53781;51.090;5.884;2022-07-09T00:51:12;18.76;66.11
66873;HTU21D;53781;51.090;5.884;2022-07-09T00:51:30;18.76;66.07
66873;HTU21D;53781;51.090;5.884;2022-07-09T00:51:45;18.74;66.11
66873;HTU21D;53781;51.090;5.884;2022-07-09T00:51:59;18.76;66.07
66873;HTU21D;53781;51.090;5.884;2022-07-09T00:52:15;18.73;66.06
66873;HTU21D;53781;51.090;5.884;2022-07-09T00:52:33;18.74;66.08
66873;HTU21D;53781;51.090;5.884;2022-07-09T00:52:49;18.72;66.10
66873;HTU21D;53781;51.090;5.884;2022-07-09T00:53:04;18.72;66.13
66873;HTU21D;53781;51.090;5.884;2022-07-09T00:53:23;18.72;66.14
66873;HTU21D;53781;51.090;5.884;2022-07-09T00:53:40;18.71;66.20
66873;HTU21D;53781;51.090;5.884;2022-07-09T00:53:56;18.71;66.20
66873;HTU21D;53781;51.090;5.884;2022-07-09T00:54:11;18.70;66.21
66873;HTU21D;53781;51.090;5.884;2022-07-09T00:54:27;18.69;66.27
66873;HTU21D;53781;51.090;5.884;2022-07-09T00:54:42;18.71;66.30
66873;HTU21D;53781;51.090;5.884;2022-07-09T00:55:00;18.68;66.30
66873;HTU21D;53781;51.090;5.884;2022-07-09T00:55:15;18.68;66.36
66873;HTU21D;53781;51.090;5.884;2022-07-09T00:55:30;18.68;66.40
66873;HTU21D;53781;51.090;5.884;2022-07-09T00:55:47;18.69;66.42
66873;HTU21D;53781;51.090;5.884;2022-07-09T00:56:03;18.68;66.46
66873;HTU21D;53781;51.090;5.884;2022-07-09T00:56:18;18.68;66.42
66873;HTU21D;53781;51.090;5.884;2022-07-09T00:56:33;18.69;66.46
66873;HTU21D;53781;51.090;5.884;2022-07-09T00:56:48;18.68;66.43
66873;HTU21D;53781;51.090;5.884;2022-07-09T00:57:04;18.66;66.46
66873;HTU21D;53781;51.090;5.884;2022-07-09T00:57:20;18.67;66.46
66873;HTU21D;53781;51.090;5.884;2022-07-09T00:57:38;18.66;66.49
66873;HTU21D;53781;51.090;5.884;2022-07-09T00:57:53;18.67;66.53
66873;HTU21D;53781;51.090;5.884;2022-07-09T00:58:08;18.66;66.54
66873;HTU21D;53781;51.090;5.884;2022-07-09T00:58:24;18.66;66.50
66873;HTU21D;53781;51.090;5.884;2022-07-09T00:58:41;18.65;66.48
66873;HTU21D;53781;51.090;5.884;2022-07-09T00:58:58;18.65;66.48
66873;HTU21D;53781;51.090;5.884;2022-07-09T00:59:13;18.64;66.48
66873;HTU21D;53781;51.090;5.884;2022-07-09T00:59:28;18.62;66.51
66873;HTU21D;53781;51.090;5.884;2022-07-09T00:59:44;18.63;66.48
66873;HTU21D;53781;51.090;5.884;2022-07-09T01:00:00;18.63;66.56
66873;HTU21D;53781;51.090;5.884;2022-07-09T01:00:14;18.62;66.53
66873;HTU21D;53781;51.090;5.884;2022-07-09T01:00:30;18.61;66.56
66873;HTU21D;53781;51.090;5.884;2022-07-09T01:00:45;18.62;66.58
66873;HTU21D;53781;51.090;5.884;2022-07-09T01:01:01;18.61;66.61
66873;HTU21D;53781;51.090;5.884;2022-07-09T01:01:16;18.61;66.59
66873;HTU21D;53781;51.090;5.884;2022-07-09T01:01:31;18.63;66.59
66873;HTU21D;53781;51.090;5.884;2022-07-09T01:01:46;18.59;66.60
66873;HTU21D;53781;51.090;5.884;2022-07-09T01:02:01;18.61;66.59
66873;HTU21D;53781;51.090;5.884;2022-07-09T01:02:18;18.61;66.61
66873;HTU21D;53781;51.090;5.884;2022-07-09T01:02:35;18.59;66.62
66873;HTU21D;53781;51.090;5.884;2022-07-09T01:02:50;18.61;66.59
66873;HTU21D;53781;51.090;5.884;2022-07-09T01:03:04;18.63;66.59
66873;HTU21D;53781;51.090;5.884;2022-07-09T01:03:19;18.61;66.60
66873;HTU21D;53781;51.090;5.884;2022-07-09T01:03:34;18.59;66.62
66873;HTU21D;53781;51.090;5.884;2022-07-09T01:03:49;18.59;66.59
66873;HTU21D;53781;51.090;5.884;2022-07-09T01:04:04;18.59;66.63
66873;HTU21D;53781;51.090;5.884;2022-07-09T01:04:19;18.59;66.63
66873;HTU21D;53781;51.090;5.884;2022-07-09T01:04:34;18.58;66.66
66873;HTU21D;53781;51.090;5.884;2022-07-09T01:04:49;18.59;66.67
66873;HTU21D;53781;51.090;5.884;2022-07-09T01:05:04;18.57;66.67
66873;HTU21D;53781;51.090;5.884;2022-07-09T01:05:19;18.57;66.66
66873;HTU21D;53781;51.090;5.884;2022-07-09T01:05:34;18.58;66.72
66873;HTU21D;53781;51.090;5.884;2022-07-09T01:05:52;18.57;66.78
66873;HTU21D;53781;51.090;5.884;2022-07-09T01:06:07;18.57;66.73
66873;HTU21D;53781;51.090;5.884;2022-07-09T01:06:22;18.57;66.74
66873;HTU21D;53781;51.090;5.884;2022-07-09T01:06:36;18.57;66.75
66873;HTU21D;53781;51.090;5.884;2022-07-09T01:06:51;18.57;66.77
66873;HTU21D;53781;51.090;5.884;2022-07-09T01:07:06;18.58;66.74
66873;HTU21D;53781;51.090;5.884;2022-07-09T01:07:21;18.58;66.78
66873;HTU21D;53781;51.090;5.884;2022-07-09T01:07:36;18.58;66.78
66873;HTU21D;53781;51.090;5.884;2022-07-09T01:07:50;18.58;66.78
66873;HTU21D;53781;51.090;5.884;2022-07-09T01:08:07;18.58;66.72
66873;HTU21D;53781;51.090;5.884;2022-07-09T01:08:22;18.58;66.69
66873;HTU21D;53781;51.090;5.884;2022-07-09T01:08:37;18.59;66.68
66873;HTU21D;53781;51.090;5.884;2022-07-09T01:08:52;18.57;66.62
66873;HTU21D;53781;51.090;5.884;2022-07-09T01:09:07;18.56;66.67
66873;HTU21D;53781;51.090;5.884;2022-07-09T01:09:22;18.58;66.63
66873;HTU21D;53781;51.090;5.884;2022-07-09T01:09:37;18.56;66.65
66873;HTU21D;53781;51.090;5.884;2022-07-09T01:09:53;18.56;66.72
66873;HTU21D;53781;51.090;5.884;2022-07-09T01:10:08;18.57;66.67
66873;HTU21D;53781;51.090;5.884;2022-07-09T01:10:23;18.57;66.70
66873;HTU21D;53781;51.090;5.884;2022-07-09T01:10:38;18.56;66.70
66873;HTU21D;53781;51.090;5.884;2022-07-09T01:10:53;18.56;66.70
66873;HTU21D;53781;51.090;5.884;2022-07-09T01:11:08;18.56;66.75
66873;HTU21D;53781;51.090;5.884;2022-07-09T01:11:23;18.55;66.81
66873;HTU21D;53781;51.090;5.884;2022-07-09T01:11:38;18.54;66.75
66873;HTU21D;53781;51.090;5.884;2022-07-09T01:11:54;18.55;66.78
66873;HTU21D;53781;51.090;5.884;2022-07-09T01:12:08;18.55;66.81
66873;HTU21D;53781;51.090;5.884;2022-07-09T01:12:23;18.56;66.82
66873;HTU21D;53781;51.090;5.884;2022-07-09T01:12:38;18.54;66.86
66873;HTU21D;53781;51.090;5.884;2022-07-09T01:12:53;18.53;66.93
66873;HTU21D;53781;51.090;5.884;2022-07-09T01:13:09;18.54;66.91
66873;HTU21D;53781;51.090;5.884;2022-07-09T01:13:25;18.55;66.87
66873;HTU21D;53781;51.090;5.884;2022-07-09T01:13:40;18.52;66.90
66873;HTU21D;53781;51.090;5.884;2022-07-09T01:13:55;18.54;66.94
66873;HTU21D;53781;51.090;5.884;2022-07-09T01:14:10;18.52;66.91
66873;HTU21D;53781;51.090;5.884;2022-07-09T01:14:25;18.53;66.92
66873;HTU21D;53781;51.090;5.884;2022-07-09T01:14:40;18.53;66.91
66873;HTU21D;53781;51.090;5.884;2022-07-09T01:14:55;18.52;66.95
66873;HTU21D;53781;51.090;5.884;2022-07-09T01:15:09;18.54;66.91
66873;HTU21D;53781;51.090;5.884;2022-07-09T01:15:24;18.53;66.90
66873;HTU21D;53781;51.090;5.884;2022-07-09T01:15:39;18.52;66.91
66873;HTU21D;53781;51.090;5.884;2022-07-09T01:15:54;18.51;66.96
66873;HTU21D;53781;51.090;5.884;2022-07-09T01:16:13;18.52;66.94
66873;HTU21D;53781;51.090;5.884;2022-07-09T01:16:33;18.53;66.96
66873;HTU21D;53781;51.090;5.884;2022-07-09T01:16:57;18.51;66.97
66873;HTU21D;53781;51.090;5.884;2022-07-09T01:17:13;18.52;67.01
66873;HTU21D;53781;51.090;5.884;2022-07-09T01:17:27;18.52;67.04
66873;HTU21D;53781;51.090;5.884;2022-07-09T01:17:42;18.51;66.96
66873;HTU21D;53781;51.090;5.884;2022-07-09T01:17:57;18.52;66.96
66873;HTU21D;53781;51.090;5.884;2022-07-09T01:18:13;18.51;66.95
66873;HTU21D;53781;51.090;5.884;2022-07-09T01:18:28;18.50;66.93
66873;HTU21D;53781;51.090;5.884;2022-07-09T01:18:46;18.51;66.98
66873;HTU21D;53781;51.090;5.884;2022-07-09T01:19:01;18.51;67.03
66873;HTU21D;53781;51.090;5.884;2022-07-09T01:19:16;18.50;67.04
66873;HTU21D;53781;51.090;5.884;2022-07-09T01:19:32;18.51;67.01
66873;HTU21D;53781;51.090;5.884;2022-07-09T01:19:47;18.51;67.03
66873;HTU21D;53781;51.090;5.884;2022-07-09T01:20:03;18.50;67.10
66873;HTU21D;53781;51.090;5.884;2022-07-09T01:20:21;18.52;67.06
66873;HTU21D;53781;51.090;5.884;2022-07-09T01:20:37;18.52;67.07
66873;HTU21D;53781;51.090;5.884;2022-07-09T01:20:51;18.52;67.07
66873;HTU21D;53781;51.090;5.884;2022-07-09T01:21:06;18.53;67.05
66873;HTU21D;53781;51.090;5.884;2022-07-09T01:21:21;18.53;66.99
66873;HTU21D;53781;51.090;5.884;2022-07-09T01:21:36;18.51;66.97
66873;HTU21D;53781;51.090;5.884;2022-07-09T01:21:51;18.52;67.01
66873;HTU21D;53781;51.090;5.884;2022-07-09T01:22:05;18.51;66.98
66873;HTU21D;53781;51.090;5.884;2022-07-09T01:22:20;18.51;66.92
66873;HTU21D;53781;51.090;5.884;2022-07-09T01:22:35;18.51;66.92
66873;HTU21D;53781;51.090;5.884;2022-07-09T01:22:50;18.50;66.94
66873;HTU21D;53781;51.090;5.884;2022-07-09T01:23:05;18.49;66.95
66873;HTU21D;53781;51.090;5.884;2022-07-09T01:23:19;18.48;66.96
66873;HTU21D;53781;51.090;5.884;2022-07-09T01:23:34;18.48;66.98
66873;HTU21D;53781;51.090;5.884;2022-07-09T01:23:49;18.47;67.03
66873;HTU21D;53781;51.090;5.884;2022-07-09T01:24:04;18.46;67.09
66873;HTU21D;53781;51.090;5.884;2022-07-09T01:24:20;18.48;67.15
66873;HTU21D;53781;51.090;5.884;2022-07-09T01:24:34;18.46;67.12
66873;HTU21D;53781;51.090;5.884;2022-07-09T01:24:52;18.47;67.10
66873;HTU21D;53781;51.090;5.884;2022-07-09T01:25:16;18.47;67.17
66873;HTU21D;53781;51.090;5.884;2022-07-09T01:25:36;18.44;67.15
66873;HTU21D;53781;51.090;5.884;2022-07-09T01:25:51;18.47;67.16
66873;HTU21D;53781;51.090;5.884;2022-07-09T01:26:08;18.46;67.17
66873;HTU21D;53781;51.090;5.884;2022-07-09T01:26:24;18.44;67.14
66873;HTU21D;53781;51.090;5.884;2022-07-09T01:26:39;18.44;67.18
66873;HTU21D;53781;51.090;5.884;2022-07-09T01:26:54;18.47;67.21
66873;HTU21D;53781;51.090;5.884;2022-07-09T01:27:08;18.44;67.17
66873;HTU21D;53781;51.090;5.884;2022-07-09T01:27:23;18.44;67.17
66873;HTU21D;53781;51.090;5.884;2022-07-09T01:27:38;18.46;67.18
66873;HTU21D;53781;51.090;5.884;2022-07-09T01:27:53;18.46;67.13
66873;HTU21D;53781;51.090;5.884;2022-07-09T01:28:09;18.44;67.16
66873;HTU21D;53781;51.090;5.884;2022-07-09T01:28:24;18.44;67.21
66873;HTU21D;53781;51.090;5.884;2022-07-09T01:28:39;18.44;67.20
66873;HTU21D;53781;51.090;5.884;2022-07-09T01:28:53;18.43;67.17
66873;HTU21D;53781;51.090;5.884;2022-07-09T01:29:08;18.44;67.17
66873;HTU21D;53781;51.090;5.884;2022-07-09T01:29:23;18.43;67.22
66873;HTU21D;53781;51.090;5.884;2022-07-09T01:29:38;18.42;67.19
66873;HTU21D;53781;51.090;5.884;2022-07-09T01:29:53;18.41;67.20
66873;HTU21D;53781;51.090;5.884;2022-07-09T01:30:08;18.42;67.19
66873;HTU21D;53781;51.090;5.884;2022-07-09T01:30:27;18.39;67.29
66873;HTU21D;53781;51.090;5.884;2022-07-09T01:30:41;18.40;67.30
66873;HTU21D;53781;51.090;5.884;2022-07-09T01:30:56;18.41;67.23
66873;HTU21D;53781;51.090;5.884;2022-07-09T01:31:11;18.39;67.29
66873;HTU21D;53781;51.090;5.884;2022-07-09T01:31:27;18.39;67.37
66873;HTU21D;53781;51.090;5.884;2022-07-09T01:31:41;18.38;67.34
66873;HTU21D;53781;51.090;5.884;2022-07-09T01:31:56;18.40;67.37
66873;HTU21D;53781;51.090;5.884;2022-07-09T01:32:11;18.39;67.44
66873;HTU21D;53781;51.090;5.884;2022-07-09T01:32:26;18.39;67.37
66873;HTU21D;53781;51.090;5.884;2022-07-09T01:32:41;18.39;67.39
66873;HTU21D;53781;51.090;5.884;2022-07-09T01:32:55;18.38;67.42
66873;HTU21D;53781;51.090;5.884;2022-07-09T01:33:10;18.38;67.39
66873;HTU21D;53781;51.090;5.884;2022-07-09T01:33:25;18.38;67.43
66873;HTU21D;53781;51.090;5.884;2022-07-09T01:33:40;18.37;67.43
66873;HTU21D;53781;51.090;5.884;2022-07-09T01:33:55;18.38;67.43
66873;HTU21D;53781;51.090;5.884;2022-07-09T01:34:10;18.37;67.44
66873;HTU21D;53781;51.090;5.884;2022-07-09T01:34:24;18.37;67.49